Time;durP1;ratioP1;P1;durP2;ratioP2;P2;SDS_P1;SDS_P2;PMS_P1;PMS_P2;Temp;Humidity;BMP_temperature;BMP_pressure;BME280_temperature;BME280_humidity;BME280_pressure;Samples;Min_cycle;Max_cycle;Signal;HPM_P1;HPM_P2
2023/10/06 00:01:27;;;;;;;7.20;3.17;;;;;;;13.01;100.00;102233.44;10403396;28;20105;-73
2023/10/06 00:06:27;;;;;;;12.07;3.40;;;;;;;13.02;100.00;102228.72;10403128;28;20041;-75
2023/10/06 00:11:29;;;;;;;9.60;3.28;;;;;;;13.07;100.00;102226.94;10400677;28;20052;-77
2023/10/06 00:16:39;;;;;;;11.25;4.50;;;;;;;13.07;100.00;102220.59;10404267;28;20108;-77
2023/10/06 00:21:46;;;;;;;6.03;3.33;;;;;;;13.03;100.00;102225.75;10347619;28;20426;-78
2023/10/06 00:26:47;;;;;;;8.48;3.65;;;;;;;13.03;100.00;102219.38;10394179;28;20284;-77
2023/10/06 00:31:48;;;;;;;6.85;2.97;;;;;;;13.04;100.00;102224.69;10405127;28;20120;-77
2023/10/06 00:36:51;;;;;;;9.73;3.15;;;;;;;13.04;100.00;102232.97;10395779;28;20038;-77
2023/10/06 00:41:56;;;;;;;8.63;3.88;;;;;;;13.02;100.00;102217.66;10400958;28;20042;-75
2023/10/06 00:47:05;;;;;;;11.32;3.50;;;;;;;12.98;100.00;102211.81;10396033;28;20042;-76
2023/10/06 00:52:07;;;;;;;8.93;3.10;;;;;;;12.94;100.00;102213.34;10402946;28;20030;-76
2023/10/06 00:57:08;;;;;;;7.75;3.33;;;;;;;12.88;100.00;102217.06;10395172;28;20046;-77
2023/10/06 01:02:10;;;;;;;9.50;3.85;;;;;;;12.83;100.00;102214.16;10402115;28;20038;-77
2023/10/06 01:07:15;;;;;;;10.57;4.50;;;;;;;12.80;100.00;102203.59;10393103;28;20068;-76
2023/10/06 01:12:19;;;;;;;20.05;4.80;;;;;;;12.72;100.00;102191.78;10387243;28;20053;-77
2023/10/06 01:17:19;;;;;;;12.52;4.28;;;;;;;12.69;100.00;102166.53;10398737;28;20620;-76
2023/10/06 01:22:29;;;;;;;12.43;4.50;;;;;;;12.71;100.00;102151.44;10397738;28;20065;-77
2023/10/06 01:27:30;;;;;;;11.48;5.65;;;;;;;12.71;100.00;102148.66;10392775;28;20061;-77
2023/10/06 01:32:30;;;;;;;9.90;5.72;;;;;;;12.70;100.00;102146.97;10390060;28;20042;-75
2023/10/06 01:37:31;;;;;;;12.85;5.18;;;;;;;12.72;100.00;102158.63;10398248;28;20049;-78
2023/10/06 01:42:31;;;;;;;15.40;5.93;;;;;;;12.74;100.00;102146.50;10397281;28;20053;-77
2023/10/06 01:47:32;;;;;;;14.40;6.22;;;;;;;12.77;100.00;102143.25;10391295;28;20042;-77
2023/10/06 01:52:32;;;;;;;14.20;5.90;;;;;;;12.82;100.00;102143.41;10396664;28;20325;-75
2023/10/06 01:57:33;;;;;;;18.85;6.40;;;;;;;12.81;100.00;102133.41;10393471;28;20045;-76
2023/10/06 02:02:33;;;;;;;14.57;6.72;;;;;;;12.92;100.00;102140.88;10398783;28;20038;-75
2023/10/06 02:07:35;;;;;;;13.85;5.85;;;;;;;12.98;100.00;102131.63;10395291;28;20062;-75
2023/10/06 02:12:37;;;;;;;12.68;5.20;;;;;;;13.08;100.00;102119.94;10399958;28;20041;-76
2023/10/06 02:17:40;;;;;;;15.55;6.80;;;;;;;13.12;100.00;102108.19;10381921;28;20579;-75
2023/10/06 02:22:40;;;;;;;12.27;5.75;;;;;;;13.13;100.00;102104.34;10368185;28;20034;-76
2023/10/06 02:27:50;;;;;;;17.83;6.07;;;;;;;13.06;100.00;102088.94;10398080;28;20025;-76
2023/10/06 02:32:54;;;;;;;13.32;7.13;;;;;;;13.20;100.00;102095.06;10383852;28;20129;-82
2023/10/06 02:37:57;;;;;;;11.80;5.90;;;;;;;13.24;100.00;102099.03;10390678;28;20047;-78
2023/10/06 02:43:00;;;;;;;17.90;7.57;;;;;;;13.22;100.00;102096.50;10385145;28;20113;-77
2023/10/06 02:48:03;;;;;;;10.32;6.55;;;;;;;13.11;100.00;102089.06;10396711;28;20033;-77
2023/10/06 02:53:07;;;;;;;11.90;6.55;;;;;;;13.18;100.00;102088.94;10391236;28;20116;-77
2023/10/06 02:58:09;;;;;;;12.02;6.13;;;;;;;13.15;100.00;102072.81;10397964;28;20044;-77
2023/10/06 03:03:17;;;;;;;10.00;5.82;;;;;;;13.11;100.00;102067.78;10393710;28;20053;-76
2023/10/06 03:08:21;;;;;;;11.40;6.68;;;;;;;12.95;100.00;102045.56;10392561;28;20064;-76
2023/10/06 03:13:32;;;;;;;21.30;7.68;;;;;;;13.04;100.00;102069.84;10381403;28;20050;-77
2023/10/06 03:18:33;;;;;;;9.05;5.80;;;;;;;13.05;100.00;102057.69;10396301;28;20052;-76
2023/10/06 03:23:38;;;;;;;18.23;6.53;;;;;;;13.02;100.00;102055.44;10391133;28;20402;-76
2023/10/06 03:28:42;;;;;;;16.13;6.85;;;;;;;13.06;100.00;102059.41;10398718;28;20042;-77
2023/10/06 03:33:46;;;;;;;16.67;6.72;;;;;;;13.06;100.00;102031.75;10397388;28;20053;-76
2023/10/06 03:38:57;;;;;;;17.40;8.02;;;;;;;13.02;100.00;102036.09;10405198;28;20041;-76
2023/10/06 03:44:03;;;;;;;14.98;6.78;;;;;;;13.03;100.00;102023.91;10377915;28;20038;-76
2023/10/06 03:49:07;;;;;;;;;;;;;;;13.00;100.00;102032.72;10403118;28;20037;-77
2023/10/06 03:54:09;;;;;;;17.55;8.23;;;;;;;13.00;100.00;102035.47;10397349;28;20012;-76
2023/10/06 03:59:12;;;;;;;19.67;7.35;;;;;;;13.00;100.00;102023.56;10405653;28;20552;-77
2023/10/06 04:04:15;;;;;;;18.48;7.35;;;;;;;13.00;100.00;102027.19;10398579;28;20038;-77
2023/10/06 04:09:27;;;;;;;15.52;7.38;;;;;;;12.99;100.00;102019.97;10394662;28;20042;-77
2023/10/06 04:14:31;;;;;;;17.65;7.78;;;;;;;13.00;100.00;102018.91;10403081;28;20049;-80
2023/10/06 04:19:34;;;;;;;15.82;8.13;;;;;;;13.00;100.00;102027.19;10387853;28;20053;-77
2023/10/06 04:24:37;;;;;;;15.80;8.93;;;;;;;13.00;100.00;102032.72;10404646;28;20033;-77
2023/10/06 04:29:39;;;;;;;13.80;7.82;;;;;;;13.01;100.00;102023.31;10397699;28;20085;-75
2023/10/06 04:34:40;;;;;;;19.60;7.65;;;;;;;12.76;100.00;101982.16;10400862;28;20038;-77
2023/10/06 04:39:42;;;;;;;18.65;7.45;;;;;;;13.00;100.00;102015.28;10387432;28;20041;-77
2023/10/06 04:44:48;;;;;;;16.08;7.55;;;;;;;12.91;100.00;101981.63;10395819;28;20101;-78
2023/10/06 04:49:52;;;;;;;11.32;7.45;;;;;;;13.03;100.00;102000.97;10400255;28;20116;-74
2023/10/06 04:54:53;;;;;;;12.52;6.72;;;;;;;13.04;100.00;101995.22;10398129;28;20037;-77
2023/10/06 04:59:53;;;;;;;15.52;6.95;;;;;;;12.97;100.00;101997.25;10397543;28;20047;-78
2023/10/06 05:04:54;;;;;;;18.98;7.40;;;;;;;12.94;100.00;101995.00;10399129;28;20042;-77
2023/10/06 05:09:55;;;;;;;18.73;6.97;;;;;;;12.91;100.00;101992.69;10395522;28;20033;-76
2023/10/06 05:14:57;;;;;;;13.73;6.70;;;;;;;12.87;100.00;101985.97;10373627;28;20033;-77
2023/10/06 05:19:58;;;;;;;13.90;7.10;;;;;;;12.87;100.00;101988.72;10397174;28;20051;-83
2023/10/06 05:25:01;;;;;;;13.43;7.25;;;;;;;12.86;100.00;101976.84;10380279;28;20054;-78
2023/10/06 05:30:02;;;;;;;20.02;7.32;;;;;;;12.83;100.00;101976.47;10395208;28;20049;-80
2023/10/06 05:35:04;;;;;;;21.33;7.25;;;;;;;12.83;100.00;101988.38;10398316;28;20073;-77
2023/10/06 05:40:05;;;;;;;13.57;6.43;;;;;;;12.83;100.00;101982.00;10395249;28;20454;-77
2023/10/06 05:45:15;;;;;;;13.52;6.55;;;;;;;12.87;100.00;101978.50;10398632;28;20037;-77
2023/10/06 05:50:18;;;;;;;13.40;6.57;;;;;;;12.87;100.00;101994.25;10394363;28;20124;-78
2023/10/06 05:55:19;;;;;;;17.10;7.40;;;;;;;12.85;100.00;101985.38;10378664;28;20052;-80
2023/10/06 06:00:20;;;;;;;14.48;7.40;;;;;;;12.85;100.00;101985.38;10391936;28;20125;-75
2023/10/06 06:05:21;;;;;;;18.10;7.15;;;;;;;12.83;100.00;101982.00;10398336;28;20042;-76
2023/10/06 06:10:21;;;;;;;18.35;7.53;;;;;;;12.84;100.00;101980.94;10390689;28;20092;-75
2023/10/06 06:15:22;;;;;;;12.75;6.90;;;;;;;12.80;100.00;101965.94;10392489;28;20049;-77
2023/10/06 06:20:22;;;;;;;19.83;7.32;;;;;;;12.93;100.00;101990.53;10390067;28;20113;-78
2023/10/06 06:25:23;;;;;;;15.77;6.03;;;;;;;12.90;100.00;101966.16;10412754;28;20059;-76
2023/10/06 06:30:24;;;;;;;12.68;7.07;;;;;;;12.98;100.00;101976.84;10390812;28;20042;-76
2023/10/06 06:35:24;;;;;;;14.60;6.90;;;;;;;13.04;100.00;101962.03;10391819;28;20060;-76
2023/10/06 06:40:26;;;;;;;11.68;5.95;;;;;;;12.99;100.00;101961.91;10387999;28;20046;-72
2023/10/06 06:45:28;;;;;;;14.30;6.45;;;;;;;13.14;100.00;101961.38;10366417;28;20076;-72
2023/10/06 06:50:29;;;;;;;12.10;5.93;;;;;;;13.18;100.00;101956.22;10392206;28;20101;-77
2023/10/06 06:55:30;;;;;;;16.42;7.82;;;;;;;13.23;100.00;101959.06;10376103;28;20057;-73
2023/10/06 07:00:30;;;;;;;13.80;6.22;;;;;;;13.34;100.00;101949.09;10393708;28;21046;-74
2023/10/06 07:05:31;;;;;;;18.88;6.65;;;;;;;13.38;100.00;101962.19;10396020;28;20567;-76
2023/10/06 07:10:31;;;;;;;16.27;6.32;;;;;;;13.39;100.00;101980.44;10381967;28;20056;-75
2023/10/06 07:15:32;;;;;;;14.48;6.75;;;;;;;13.42;100.00;101977.22;10385499;28;20050;-75
2023/10/06 07:20:32;;;;;;;15.85;6.93;;;;;;;13.48;100.00;101976.22;10389424;28;20038;-79
2023/10/06 07:25:33;;;;;;;13.30;6.80;;;;;;;13.57;100.00;101976.66;10397415;28;20052;-78
2023/10/06 07:30:36;;;;;;;17.98;6.40;;;;;;;13.68;100.00;101989.63;10389969;28;20045;-77
2023/10/06 07:35:41;;;;;;;10.82;6.22;;;;;;;13.82;100.00;101981.00;10396763;28;20105;-76
2023/10/06 07:40:42;;;;;;;15.68;5.80;;;;;;;14.02;100.00;101988.81;10361388;28;20046;-76
2023/10/06 07:45:42;;;;;;;14.30;5.43;;;;;;;14.09;100.00;101984.78;10397309;28;20045;-76
2023/10/06 07:50:43;;;;;;;14.35;5.95;;;;;;;14.18;100.00;101978.81;10390634;28;20065;-75
2023/10/06 07:55:43;;;;;;;25.48;7.70;;;;;;;14.31;100.00;101993.19;10395374;28;20065;-75
2023/10/06 08:00:44;;;;;;;16.95;5.53;;;;;;;14.46;100.00;101972.34;10387032;28;20089;-76
2023/10/06 08:05:44;;;;;;;12.15;6.00;;;;;;;14.61;100.00;101978.16;10378812;28;20042;-77
2023/10/06 08:10:45;;;;;;;15.65;5.80;;;;;;;14.68;100.00;101981.59;10394025;28;20434;-75
2023/10/06 08:15:45;;;;;;;16.67;7.75;;;;;;;14.72;100.00;101985.53;10393133;28;20482;-77
2023/10/06 08:20:46;;;;;;;13.48;7.50;;;;;;;14.63;100.00;101989.00;10397529;28;20053;-74
2023/10/06 08:25:46;;;;;;;19.80;8.27;;;;;;;14.63;100.00;101987.03;10402620;28;25143;-76
2023/10/06 08:30:47;;;;;;;16.00;7.70;;;;;;;14.55;100.00;101984.69;10398279;28;20110;-76
2023/10/06 08:35:58;;;;;;;14.20;7.25;;;;;;;14.60;100.00;101979.25;10403420;28;20052;-75
2023/10/06 08:41:02;;;;;;;12.40;6.82;;;;;;;14.78;100.00;101993.91;10394190;28;20617;-76
2023/10/06 08:46:02;;;;;;;13.73;7.13;;;;;;;14.88;100.00;101966.31;10390912;28;20042;-78
2023/10/06 08:51:07;;;;;;;16.50;7.18;;;;;;;15.21;100.00;101981.19;10399298;28;20045;-78
2023/10/06 08:56:07;;;;;;;10.85;6.05;;;;;;;15.38;100.00;101984.72;10394440;28;20049;-79
2023/10/06 09:01:09;;;;;;;12.82;5.97;;;;;;;15.41;100.00;101956.44;10395005;28;20042;-76
2023/10/06 09:06:11;;;;;;;14.93;7.32;;;;;;;15.47;100.00;101955.41;10384953;28;20097;-78
2023/10/06 09:11:11;;;;;;;10.68;5.93;;;;;;;15.67;100.00;101959.50;10385051;28;20030;-78
2023/10/06 09:16:12;;;;;;;10.48;6.38;;;;;;;15.63;100.00;101963.91;10394913;28;20038;-76
2023/10/06 09:21:12;;;;;;;14.57;6.28;;;;;;;15.60;100.00;101964.41;10400441;28;20036;-78
2023/10/06 09:26:15;;;;;;;8.00;5.47;;;;;;;15.57;100.00;101960.25;10396100;28;20089;-78
2023/10/06 09:31:18;;;;;;;15.57;6.03;;;;;;;15.68;100.00;101963.94;10399201;28;20033;-79
2023/10/06 09:36:21;;;;;;;9.32;4.47;;;;;;;15.82;100.00;101956.06;10394857;28;20050;-79
2023/10/06 09:41:28;;;;;;;13.27;5.47;;;;;;;15.74;100.00;101944.31;10398237;28;20033;-78
2023/10/06 09:46:29;;;;;;;10.40;5.25;;;;;;;15.82;100.00;101943.03;10395704;28;20050;-79
2023/10/06 09:51:30;;;;;;;13.38;5.10;;;;;;;16.01;100.00;101942.63;10396459;28;20045;-76
2023/10/06 09:56:31;;;;;;;13.18;5.78;;;;;;;16.10;100.00;101941.03;10394940;28;20050;-79
2023/10/06 10:01:31;;;;;;;10.02;4.47;;;;;;;16.50;100.00;101922.97;10394487;28;20067;-79
2023/10/06 10:06:32;;;;;;;11.18;4.32;;;;;;;16.54;100.00;101924.94;10395981;28;20160;-79
2023/10/06 10:11:39;;;;;;;12.27;4.57;;;;;;;16.85;100.00;101930.72;10388224;28;20036;-79
2023/10/06 10:16:58;;;;;;;10.45;4.22;;;;;;;17.52;100.00;101911.44;10391378;28;20312;-76
2023/10/06 10:21:58;;;;;;;10.45;4.00;;;;;;;17.87;100.00;101896.72;10395716;28;20045;-77
2023/10/06 10:26:59;;;;;;;8.95;4.47;;;;;;;17.80;100.00;101893.38;10396601;28;20044;-76
2023/10/06 10:32:03;;;;;;;10.60;4.82;;;;;;;17.67;100.00;101905.91;10396614;28;20064;-78
2023/10/06 10:37:05;;;;;;;9.43;4.05;;;;;;;17.68;100.00;101903.94;10392702;28;20507;-80
2023/10/06 10:42:06;;;;;;;9.05;5.03;;;;;;;17.71;100.00;101903.38;10389815;28;20042;-76
2023/10/06 10:47:06;;;;;;;12.10;4.20;;;;;;;18.11;100.00;101908.16;10377147;28;20040;-78
2023/10/06 10:52:08;;;;;;;13.23;3.90;;;;;;;18.21;100.00;101901.72;10387360;28;20037;-77
2023/10/06 10:57:14;;;;;;;12.75;3.58;;;;;;;18.27;100.00;101899.75;10391980;28;20050;-80
2023/10/06 11:02:15;;;;;;;15.55;4.95;;;;;;;18.04;100.00;101878.88;10398153;28;20038;-77
2023/10/06 11:07:16;;;;;;;9.88;3.92;;;;;;;18.14;100.00;101878.88;10390443;28;20121;-74
2023/10/06 11:12:16;;;;;;;13.40;4.18;;;;;;;18.02;100.00;101865.22;10389993;28;20038;-76
2023/10/06 11:17:24;;;;;;;7.75;4.22;;;;;;;17.99;100.00;101863.00;10371782;28;20083;-75
2023/10/06 11:22:27;;;;;;;8.30;3.75;;;;;;;17.95;100.00;101856.34;10363436;28;20045;-75
2023/10/06 11:27:28;;;;;;;9.70;3.83;;;;;;;18.03;100.00;101850.19;10370595;28;20050;-77
2023/10/06 11:32:28;;;;;;;14.40;4.07;;;;;;;18.18;100.00;101852.09;10370386;28;20038;-76
2023/10/06 11:37:29;;;;;;;9.32;2.72;;;;;;;18.65;100.00;101852.81;10365295;28;20042;-77
2023/10/06 11:42:30;;;;;;;9.30;3.70;;;;;;;19.06;100.00;101833.09;10368191;28;20430;-79
2023/10/06 11:47:40;;;;;;;13.45;4.05;;;;;;;19.49;100.00;101834.22;10378471;28;20038;-78
2023/10/06 11:52:43;;;;;;;8.77;2.65;;;;;;;19.50;100.00;101827.47;10399563;28;20053;-77
2023/10/06 11:57:47;;;;;;;13.43;3.45;;;;;;;19.53;100.00;101837.22;10400003;28;20500;-79
2023/10/06 12:02:53;;;;;;;6.03;3.10;;;;;;;20.07;100.00;101835.38;10404257;28;20049;-78
2023/10/06 12:08:05;;;;;;;11.35;3.33;;;;;;;20.33;100.00;101845.16;10399312;28;20069;-77
2023/10/06 12:13:10;;;;;;;12.05;2.90;;;;;;;20.14;100.00;101839.50;10386803;28;20064;-77
2023/10/06 12:18:14;;;;;;;7.90;3.35;;;;;;;20.63;100.00;101826.38;10396898;28;20276;-80
2023/10/06 12:23:15;;;;;;;7.70;2.65;;;;;;;20.86;100.00;101818.25;10403888;28;20088;-77
2023/10/06 12:28:16;;;;;;;6.90;3.25;;;;;;;20.73;100.00;101815.06;10399636;28;20041;-78
2023/10/06 12:33:16;;;;;;;11.00;3.67;;;;;;;21.02;100.00;101805.66;10402046;28;20046;-78
2023/10/06 12:38:17;;;;;;;11.38;3.22;;;;;;;21.35;100.00;101788.94;10399558;28;20041;-77
2023/10/06 12:43:19;;;;;;;6.60;3.08;;;;;;;21.69;100.00;101790.63;10394804;28;20559;-79
2023/10/06 12:48:19;;;;;;;11.45;3.10;;;;;;;21.09;100.00;101791.31;10397878;28;20046;-82
2023/10/06 12:53:20;;;;;;;6.80;2.53;;;;;;;21.15;100.00;101787.31;10399010;28;20042;-76
2023/10/06 12:58:20;;;;;;;8.95;3.55;;;;;;;21.27;100.00;101793.28;10379359;28;20042;-78
2023/10/06 13:03:21;;;;;;;9.65;2.78;;;;;;;21.01;100.00;101781.63;10396867;28;20033;-77
2023/10/06 13:08:24;;;;;;;8.30;2.78;;;;;;;20.50;100.00;101794.31;10378941;28;20061;-82
2023/10/06 13:13:25;;;;;;;7.88;3.17;;;;;;;20.38;100.00;101790.28;10399435;28;20406;-73
2023/10/06 13:18:25;;;;;;;5.05;2.75;;;;;;;20.44;100.00;101803.09;10394152;28;20045;-77
2023/10/06 13:23:27;;;;;;;7.32;3.30;;;;;;;19.85;100.00;101794.78;10400539;28;20049;-74
2023/10/06 13:28:28;;;;;;;9.65;3.28;;;;;;;19.45;100.00;101809.94;10394003;28;20038;-72
2023/10/06 13:33:29;;;;;;;11.48;3.42;;;;;;;18.93;100.00;101798.28;10400246;28;20079;-74
2023/10/06 13:38:31;;;;;;;9.57;2.78;;;;;;;18.86;100.00;101814.53;10388423;28;20046;-72
2023/10/06 13:43:31;;;;;;;12.50;3.03;;;;;;;18.54;100.00;101799.88;10396989;28;20038;-75
2023/10/06 13:48:33;;;;;;;9.23;3.55;;;;;;;18.54;100.00;101796.22;10396056;28;20034;-74
2023/10/06 13:53:33;;;;;;;6.68;2.70;;;;;;;18.48;100.00;101787.06;10398312;28;20089;-75
2023/10/06 13:58:33;;;;;;;7.95;2.50;;;;;;;18.44;100.00;101785.13;10397154;28;20062;-73
2023/10/06 14:03:34;;;;;;;10.25;2.47;;;;;;;18.67;100.00;101787.25;10386934;28;20046;-69
2023/10/06 14:08:35;;;;;;;9.15;2.38;;;;;;;18.71;100.00;101787.53;10395313;28;20052;-76
2023/10/06 14:13:39;;;;;;;11.63;2.85;;;;;;;18.59;100.00;101782.28;10396237;28;20051;-75
2023/10/06 14:18:40;;;;;;;8.98;2.67;;;;;;;18.44;100.00;101782.31;10393225;28;20071;-75
2023/10/06 14:23:46;;;;;;;15.50;2.88;;;;;;;18.28;100.00;101773.22;10398611;28;20029;-76
2023/10/06 14:28:47;;;;;;;14.65;3.63;;;;;;;18.27;100.00;101777.97;10392745;28;20111;-76
2023/10/06 14:33:57;;;;;;;9.75;2.72;;;;;;;18.23;100.00;101778.78;10398366;28;20052;-75
2023/10/06 14:49:40;;;;;;;8.25;2.30;;;;;;;18.09;100.00;101784.16;10397000;28;20041;-78
2023/10/06 14:54:41;;;;;;;10.05;2.35;;;;;;;18.06;100.00;101781.91;10392399;28;20453;-78
2023/10/06 14:59:44;;;;;;;9.95;2.47;;;;;;;18.03;100.00;101799.22;10395920;28;20045;-75
2023/10/06 15:04:44;;;;;;;16.85;3.15;;;;;;;17.99;100.00;101789.75;10393743;28;20506;-74
2023/10/06 15:09:45;;;;;;;14.32;2.33;;;;;;;17.97;100.00;101789.19;10395067;28;20049;-72
2023/10/06 15:14:46;;;;;;;11.40;2.97;;;;;;;17.91;100.00;101774.44;10391847;28;20045;-76
2023/10/06 15:19:46;;;;;;;12.48;2.33;;;;;;;17.90;100.00;101778.31;10386027;28;20044;-77
2023/10/06 15:24:47;;;;;;;10.48;2.85;;;;;;;17.89;100.00;101780.28;10395794;28;20037;-79
2023/10/06 15:29:51;;;;;;;9.25;2.15;;;;;;;17.92;100.00;101770.50;10399958;28;20034;-77
2023/10/06 15:34:51;;;;;;;10.38;2.03;;;;;;;17.87;100.00;101779.72;10403758;28;20104;-77
2023/10/06 15:39:52;;;;;;;12.52;1.98;;;;;;;17.87;100.00;101767.75;10399378;28;20041;-77
2023/10/06 15:44:52;;;;;;;13.77;2.13;;;;;;;17.84;100.00;101768.31;10401423;28;20042;-78
2023/10/06 15:49:53;;;;;;;9.57;2.45;;;;;;;17.79;100.00;101776.66;10404610;28;20071;-76
2023/10/06 15:54:54;;;;;;;11.57;2.25;;;;;;;17.75;100.00;101773.59;10398027;28;20046;-79
2023/10/06 15:59:57;;;;;;;12.40;3.17;;;;;;;17.74;100.00;101785.84;10404926;28;20041;-77
2023/10/06 16:04:59;;;;;;;14.43;2.10;;;;;;;17.70;100.00;101776.41;10396476;28;20038;-80
2023/10/06 16:09:59;;;;;;;9.05;1.92;;;;;;;17.67;100.00;101763.00;10395997;28;20144;-77
2023/10/06 16:15:00;;;;;;;7.38;2.40;;;;;;;17.68;100.00;101770.28;10395572;28;20562;-77
2023/10/06 16:20:01;;;;;;;10.13;2.38;;;;;;;17.68;100.00;101779.44;10399452;28;20045;-75
2023/10/06 16:25:05;;;;;;;9.35;2.10;;;;;;;17.73;100.00;101773.03;10401301;28;20042;-75
2023/10/06 16:30:07;;;;;;;12.57;2.63;;;;;;;17.74;100.00;101764.41;10400243;28;20042;-79
2023/10/06 16:35:10;;;;;;;12.45;1.92;;;;;;;17.69;100.00;101766.34;10400630;28;20048;-80
2023/10/06 16:40:12;;;;;;;10.77;3.05;;;;;;;17.53;100.00;101758.03;10388044;28;20085;-82
2023/10/06 16:45:13;;;;;;;10.32;2.28;;;;;;;17.60;100.00;101768.06;10395849;28;20041;-78
2023/10/06 16:50:13;;;;;;;7.60;2.05;;;;;;;17.55;100.00;101766.94;10401446;28;20108;-80
2023/10/06 16:55:14;;;;;;;9.13;2.22;;;;;;;16.78;100.00;101653.94;10379182;28;20165;-80
2023/10/06 17:00:16;;;;;;;5.70;2.03;;;;;;;17.49;100.00;101767.22;10397927;28;20045;-81
2023/10/06 17:05:17;;;;;;;11.07;2.58;;;;;;;17.47;100.00;101769.47;10396229;28;20041;-75
2023/10/06 17:10:18;;;;;;;9.32;2.20;;;;;;;17.46;100.00;101785.31;10400316;28;20042;-76
2023/10/06 17:15:18;;;;;;;9.88;2.00;;;;;;;17.39;100.00;101773.63;10396221;28;20096;-76
2023/10/06 17:20:21;;;;;;;7.07;2.03;;;;;;;17.43;100.00;101774.75;10401422;28;20041;-76
2023/10/06 17:25:21;;;;;;;12.73;2.22;;;;;;;17.40;100.00;101791.97;10400901;28;20060;-77
2023/10/06 17:30:22;;;;;;;11.68;2.78;;;;;;;17.35;100.00;101783.66;10401570;28;20038;-76
2023/10/06 17:35:22;;;;;;;10.63;2.22;;;;;;;17.33;100.00;101785.88;10401392;28;20045;-75
2023/10/06 17:40:23;;;;;;;6.40;2.40;;;;;;;17.29;100.00;101780.00;10407202;28;20061;-79
2023/10/06 17:45:24;;;;;;;9.77;2.13;;;;;;;17.26;100.00;101790.84;10399279;28;20064;-76
2023/10/06 17:50:25;;;;;;;13.13;2.72;;;;;;;17.22;100.00;101779.47;10394014;28;20050;-77
2023/10/06 17:55:31;;;;;;;14.02;3.75;;;;;;;17.14;100.00;101778.06;10399802;28;20045;-77
2023/10/06 18:00:31;;;;;;;8.80;3.42;;;;;;;17.22;100.00;101784.19;10400640;28;20425;-77
2023/10/06 18:05:32;;;;;;;8.77;2.50;;;;;;;17.22;100.00;101795.31;10397403;28;20041;-77
2023/10/06 18:10:34;;;;;;;13.52;3.95;;;;;;;17.23;100.00;101791.44;10398170;28;20041;-79
2023/10/06 18:15:34;;;;;;;10.25;2.60;;;;;;;17.17;100.00;101793.38;10396860;28;20042;-73
2023/10/06 18:20:38;;;;;;;14.77;2.72;;;;;;;17.10;100.00;101776.94;10398453;28;20038;-78
2023/10/06 18:25:39;;;;;;;12.60;2.85;;;;;;;17.15;100.00;101785.28;10382048;28;20117;-78
2023/10/06 18:30:46;;;;;;;13.90;3.03;;;;;;;17.00;100.00;101776.94;10396871;28;20120;-77
2023/10/06 18:35:46;;;;;;;11.60;2.95;;;;;;;16.99;100.00;101775.28;10396905;28;20101;-79
2023/10/06 18:40:55;;;;;;;12.43;3.38;;;;;;;17.01;100.00;101777.75;10389722;28;20037;-77
2023/10/06 18:45:56;;;;;;;19.38;4.70;;;;;;;17.01;100.00;101777.75;10396023;28;20065;-79
2023/10/06 18:50:58;;;;;;;9.05;2.38;;;;;;;16.98;100.00;101773.59;10395788;28;20057;-78
2023/10/06 18:55:59;;;;;;;12.77;3.25;;;;;;;16.95;100.00;101776.94;10390257;28;20073;-76
2023/10/06 19:01:00;;;;;;;11.77;4.03;;;;;;;16.94;100.00;101766.91;10389682;28;20046;-77
2023/10/06 19:06:04;;;;;;;23.30;4.47;;;;;;;16.89;100.00;101770.53;10391340;28;21032;-78
2023/10/06 19:11:07;;;;;;;9.30;2.70;;;;;;;16.87;100.00;101771.91;10398499;28;20041;-76
2023/10/06 19:16:11;;;;;;;11.05;2.97;;;;;;;16.81;100.00;101767.44;10395084;28;20326;-75
2023/10/06 19:21:11;;;;;;;13.98;4.45;;;;;;;16.75;100.00;101764.59;10394200;28;20029;-76
2023/10/06 19:26:12;;;;;;;22.05;4.05;;;;;;;16.73;100.00;101777.13;10393493;28;20040;-76
2023/10/06 19:31:12;;;;;;;17.00;3.15;;;;;;;16.74;100.00;101762.09;10397022;28;20515;-79
2023/10/06 19:36:13;;;;;;;10.63;2.95;;;;;;;16.72;100.00;101767.94;10393390;28;20049;-78
2023/10/06 19:41:17;;;;;;;14.77;2.85;;;;;;;16.72;100.00;101770.72;10396919;28;20038;-78
2023/10/06 19:46:18;;;;;;;14.57;3.08;;;;;;;16.74;100.00;101782.41;10397902;28;20125;-81
2023/10/06 19:51:18;;;;;;;13.98;3.10;;;;;;;16.62;100.00;101776.25;10395115;28;20045;-76
2023/10/06 19:56:22;;;;;;;16.42;3.58;;;;;;;16.49;100.00;101783.13;10392528;28;20045;-76
2023/10/06 20:01:24;;;;;;;15.23;3.42;;;;;;;16.37;100.00;101790.03;10395334;28;20442;-79
2023/10/06 20:06:24;;;;;;;17.52;4.30;;;;;;;16.22;100.00;101769.41;10399901;28;20069;-79
2023/10/06 20:11:25;;;;;;;16.48;3.83;;;;;;;16.09;100.00;101773.53;10394758;28;20049;-78
2023/10/06 20:16:25;;;;;;;22.80;4.72;;;;;;;15.98;100.00;101776.50;10412553;28;20072;-77
2023/10/06 20:21:26;;;;;;;13.45;3.75;;;;;;;16.07;100.00;101774.91;10402680;28;20065;-80
2023/10/06 20:26:28;;;;;;;14.55;4.40;;;;;;;16.07;100.00;101770.19;10400687;28;20042;-80
2023/10/06 20:31:29;;;;;;;16.35;4.00;;;;;;;16.08;100.00;101776.56;10402344;28;20041;-79
2023/10/06 20:36:29;;;;;;;16.67;5.10;;;;;;;16.08;100.00;101769.09;10401493;28;20610;-78
2023/10/06 20:41:30;;;;;;;19.20;4.35;;;;;;;16.10;100.00;101768.78;10401342;28;20034;-80
2023/10/06 20:46:30;;;;;;;16.25;3.55;;;;;;;16.13;100.00;101757.97;10405841;28;20030;-84
2023/10/06 20:51:31;;;;;;;15.80;3.97;;;;;;;16.02;100.00;101747.94;10402744;28;20097;-79
2023/10/06 20:56:32;;;;;;;15.25;4.28;;;;;;;16.12;100.00;101769.34;10401356;28;20056;-79
2023/10/06 21:01:32;;;;;;;17.15;4.05;;;;;;;16.06;100.00;101746.31;10402035;28;20152;-80
2023/10/06 21:06:36;;;;;;;22.88;6.97;;;;;;;16.16;100.00;101756.59;10404126;28;20053;-79
2023/10/06 21:11:39;;;;;;;14.13;3.83;;;;;;;16.15;100.00;101760.50;10401267;28;20044;-77
2023/10/06 21:16:42;;;;;;;17.90;3.92;;;;;;;16.03;100.00;101746.00;10401714;28;20520;-79
2023/10/06 21:21:43;;;;;;;17.02;3.83;;;;;;;16.12;100.00;101770.22;10402356;28;20057;-77
2023/10/06 21:26:43;;;;;;;20.15;4.18;;;;;;;16.17;100.00;101757.47;10398390;28;20042;-79
2023/10/06 21:31:46;;;;;;;24.63;4.65;;;;;;;16.26;100.00;101739.97;10398830;28;20049;-77
2023/10/06 21:36:46;;;;;;;10.32;3.65;;;;;;;16.28;100.00;101723.88;10369645;28;20052;-81
2023/10/06 21:41:47;;;;;;;15.27;2.80;;;;;;;16.36;100.00;101728.06;10394688;28;20042;-80
2023/10/06 21:46:48;;;;;;;17.27;4.63;;;;;;;16.13;100.00;101690.50;10384022;28;20117;-77
2023/10/06 21:51:48;;;;;;;12.50;3.63;;;;;;;16.42;100.00;101728.94;10398905;28;20057;-80
2023/10/06 21:56:49;;;;;;;10.55;3.17;;;;;;;16.44;100.00;101712.81;10400196;28;20042;-80
2023/10/06 22:01:49;;;;;;;11.75;3.15;;;;;;;16.44;100.00;101722.00;10398286;28;20045;-76
2023/10/06 22:06:52;;;;;;;15.45;3.35;;;;;;;16.47;100.00;101723.38;10396756;28;20044;-76
2023/10/06 22:11:52;;;;;;;18.77;3.95;;;;;;;16.50;100.00;101712.56;10403565;28;20042;-80
2023/10/06 22:16:54;;;;;;;14.45;3.15;;;;;;;16.45;100.00;101692.25;10395731;28;20061;-78
2023/10/06 22:21:55;;;;;;;11.25;4.10;;;;;;;16.58;100.00;101705.63;10385009;28;20111;-79
2023/10/06 22:26:57;;;;;;;12.70;3.35;;;;;;;16.46;100.00;101688.38;10392053;28;20465;-79
2023/10/06 22:31:57;;;;;;;15.32;3.22;;;;;;;16.66;100.00;101710.66;10394642;28;20041;-79
2023/10/06 22:36:58;;;;;;;11.35;2.97;;;;;;;16.69;100.00;101709.25;10396255;28;20042;-77
2023/10/06 22:41:59;;;;;;;13.27;3.17;;;;;;;16.67;100.00;101708.72;10393646;28;20053;-72
2023/10/06 22:46:59;;;;;;;13.27;3.00;;;;;;;16.70;100.00;101711.78;10397095;28;20080;-79
2023/10/06 22:52:00;;;;;;;11.25;3.42;;;;;;;16.73;100.00;101697.31;10393718;28;20046;-80